In Rescue
 
Open Full Screen Window  High Contrast Mode
Wind Gusting 00 knots
06
March 14, 2020 9:31 AM CDT
Weather Information
Wind Direction
  050 °
Wind Speed
  06 kt (7 mph)
Wind Gust
  00 kt (0 mph)
Altimeter
30.61 in
Visibility
10 SM
Temperature
-06° C
21° F
Dewpoint
-11° C
12° F
Humidity
68%
1hr Rain Fall
00.00 in.
24hr Rain Fall
00.00 in.
Sky Condition
Overcast @ 9,000 ft
VFR

METAR KAQP 141431Z AUTO 05006KT 10SM OVC090 M06/M11 A3061 RMK AO2

FAA Disclaimer: The data displayed is for advisory purposes only and is not to be used for flight planning or operations.